Terminal Aerodrome Forecast
Issued by NWS Rapid City, SD

Home | Current Version | Previous Version | Graphics & Text | Print | Product List | Glossary On
Versions: 1 2 3 4 5 6 7 8 9 10 11 12 13 14 15 16 17 18
078
FTUS43 KUNR 161700 AAA
TAFRAP
TAF AMD
KRAP 161700Z 1617/1712 35014KT P6SM BKN035
     FM170200 27005KT P6SM SKC=

USA.gov is the U.S. government's official web portal to all federal, state and local government web resources and services.